Time;durP1;ratioP1;P1;durP2;ratioP2;P2;SDS_P1;SDS_P2;PMS_P1;PMS_P2;Temp;Humidity;BMP_temperature;BMP_pressure;BME280_temperature;BME280_humidity;BME280_pressure;Samples;Min_cycle;Max_cycle;Signal;HPM_P1;HPM_P2
2022/06/20 00:01:15;;;;;;;9.60;4.97;;;23.20;99.90;;;;;;5031345;28;20060;-69
2022/06/20 00:04:20;;;;;;;8.20;4.53;;;22.90;99.90;;;;;;5031380;28;20043;-69
2022/06/20 00:07:24;;;;;;;13.20;5.55;;;22.70;99.90;;;;;;5030995;28;20072;-68
2022/06/20 00:10:29;;;;;;;6.82;4.78;;;22.40;99.90;;;;;;5031085;28;20044;-69
2022/06/20 00:13:34;;;;;;;11.82;5.40;;;22.20;99.90;;;;;;5031321;28;20044;-68
2022/06/20 00:16:39;;;;;;;7.85;5.45;;;21.90;99.90;;;;;;5030792;28;20052;-69
2022/06/20 00:19:42;;;;;;;8.40;5.00;;;21.80;99.90;;;;;;5030981;28;20048;-69
2022/06/20 00:22:46;;;;;;;10.55;5.45;;;21.80;99.90;;;;;;5030984;28;20044;-69
2022/06/20 00:25:50;;;;;;;5.90;5.07;;;21.80;99.90;;;;;;5029728;28;20051;-68
2022/06/20 00:28:55;;;;;;;7.90;4.90;;;21.80;99.90;;;;;;5031192;28;20388;-68
2022/06/20 00:32:00;;;;;;;11.48;5.82;;;21.80;99.90;;;;;;5030569;28;20041;-68
2022/06/20 00:35:04;;;;;;;12.07;5.70;;;21.70;99.90;;;;;;5030849;28;20471;-68
2022/06/20 00:38:16;;;;;;;7.45;5.18;;;21.70;99.90;;;;;;5030584;28;20036;-68
2022/06/20 00:41:25;;;;;;;7.97;4.60;;;21.70;99.90;;;;;;5030925;28;20037;-69
2022/06/20 00:44:41;;;;;;;8.30;4.60;;;21.70;99.90;;;;;;5030827;28;20408;-68
2022/06/20 00:48:17;;;;;;;6.93;4.70;;;21.70;99.90;;;;;;5029972;28;20048;-68
2022/06/20 00:51:43;;;;;;;7.05;5.05;;;21.80;99.90;;;;;;5030061;28;20049;-68
2022/06/20 00:55:30;;;;;;;9.43;4.95;;;21.80;99.90;;;;;;5030129;28;20381;-69
2022/06/20 00:58:59;;;;;;;6.20;4.45;;;21.70;99.90;;;;;;5030350;28;20113;-68
2022/06/20 01:02:30;;;;;;;5.38;4.63;;;21.70;99.90;;;;;;5030309;28;20112;-68
2022/06/20 01:06:00;;;;;;;8.63;5.37;;;21.60;99.90;;;;;;5030421;28;20495;-68
2022/06/20 01:09:33;;;;;;;6.55;4.28;;;21.60;99.90;;;;;;5038525;28;20045;-68
2022/06/20 01:13:00;;;;;;;8.10;4.57;;;21.50;99.90;;;;;;5029790;28;20044;-69
2022/06/20 01:16:23;;;;;;;9.07;4.45;;;21.50;99.90;;;;;;5029726;28;20041;-69
2022/06/20 01:20:17;;;;;;;7.25;4.97;;;21.60;99.90;;;;;;5029968;28;20040;-68
2022/06/20 01:24:13;;;;;;;10.45;5.05;;;21.50;99.90;;;;;;5030034;28;20116;-69
2022/06/20 01:27:45;;;;;;;13.90;5.57;;;21.50;99.90;;;;;;5029593;28;20408;-68
2022/06/20 01:31:10;;;;;;;6.15;4.45;;;21.50;99.90;;;;;;5029998;28;20049;-68
2022/06/20 01:34:34;;;;;;;8.20;4.63;;;21.60;99.90;;;;;;5029579;28;20037;-68
2022/06/20 01:37:57;;;;;;;10.70;4.68;;;21.60;99.90;;;;;;5029670;28;20041;-68
2022/06/20 01:45:57;;;;;;;6.20;4.67;;;21.20;99.90;;;;;;5031977;28;20052;-68
2022/06/20 01:48:53;;;;;;;10.13;5.03;;;21.10;99.90;;;;;;5033832;28;20056;-69
2022/06/20 01:52:38;;;;;;;11.52;5.28;;;21.10;99.90;;;;;;5033525;28;20049;-68
2022/06/20 01:56:04;;;;;;;8.88;5.22;;;21.00;99.90;;;;;;5033806;28;20040;-68
2022/06/20 01:59:34;;;;;;;7.88;5.65;;;20.90;99.90;;;;;;5033735;28;20049;-69
2022/06/20 02:03:03;;;;;;;10.30;5.88;;;20.90;99.90;;;;;;5033618;28;20518;-68
2022/06/20 02:06:29;;;;;;;8.70;5.43;;;20.80;99.90;;;;;;5033396;28;20064;-68
2022/06/20 02:09:51;;;;;;;7.75;5.75;;;20.80;99.90;;;;;;5033460;28;20048;-68
2022/06/20 02:13:17;;;;;;;8.02;5.40;;;20.70;99.90;;;;;;5033408;28;20036;-69
2022/06/20 02:16:43;;;;;;;6.53;5.60;;;20.70;99.90;;;;;;5032672;28;20334;-68
2022/06/20 02:20:12;;;;;;;9.18;5.57;;;20.50;99.90;;;;;;5033019;28;20044;-69
2022/06/20 02:23:39;;;;;;;12.57;6.80;;;20.50;99.90;;;;;;5032956;28;20040;-68
2022/06/20 02:27:05;;;;;;;14.60;7.20;;;20.40;99.90;;;;;;5032821;28;20060;-68
2022/06/20 02:30:29;;;;;;;8.15;6.55;;;20.30;99.90;;;;;;5033230;28;20037;-68
2022/06/20 02:33:54;;;;;;;9.00;7.15;;;20.30;99.90;;;;;;5033083;28;20053;-68
2022/06/20 02:37:23;;;;;;;9.95;6.93;;;20.20;99.90;;;;;;5032314;28;20049;-69
2022/06/20 02:40:49;;;;;;;12.38;6.30;;;20.10;99.90;;;;;;5032804;28;20045;-68
2022/06/20 02:44:18;;;;;;;11.70;6.30;;;20.00;99.90;;;;;;5032549;28;20503;-68
2022/06/20 02:47:45;;;;;;;10.65;6.90;;;19.90;99.90;;;;;;5032113;28;20053;-69
2022/06/20 02:51:13;;;;;;;12.20;7.45;;;19.90;99.90;;;;;;5032455;28;20056;-68
2022/06/20 02:54:39;;;;;;;9.32;6.68;;;19.80;99.90;;;;;;5032767;28;20068;-68
2022/06/20 02:58:11;;;;;;;13.15;6.65;;;19.80;99.90;;;;;;5032005;28;20045;-68
2022/06/20 03:01:53;;;;;;;11.57;7.03;;;19.90;99.90;;;;;;5032503;28;20503;-68
2022/06/20 03:05:17;;;;;;;6.40;5.78;;;19.80;99.90;;;;;;5032217;28;20064;-68
2022/06/20 03:08:42;;;;;;;9.88;6.70;;;19.80;99.90;;;;;;5032696;28;20388;-67
2022/06/20 03:12:07;;;;;;;9.00;6.85;;;19.70;99.90;;;;;;5032167;28;20044;-69
2022/06/20 03:15:30;;;;;;;8.55;6.57;;;19.60;99.90;;;;;;5032305;28;20056;-68
2022/06/20 03:18:57;;;;;;;11.57;6.72;;;19.50;99.90;;;;;;5032162;28;20048;-68
2022/06/20 03:22:22;;;;;;;10.20;5.63;;;19.40;99.90;;;;;;5032074;28;20527;-68
2022/06/20 03:25:45;;;;;;;10.25;5.57;;;19.30;99.90;;;;;;5032086;28;20052;-69
2022/06/20 03:29:14;;;;;;;8.25;5.40;;;19.30;99.90;;;;;;5031837;28;20056;-69
2022/06/20 03:32:37;;;;;;;6.30;4.80;;;19.30;99.90;;;;;;5031818;28;20495;-68
2022/06/20 03:36:40;;;;;;;10.68;5.68;;;19.30;99.90;;;;;;5031554;28;20052;-68
2022/06/20 03:40:04;;;;;;;7.63;6.00;;;19.30;99.90;;;;;;4989774;28;20585;-68
2022/06/20 03:43:28;;;;;;;12.52;5.95;;;19.30;99.90;;;;;;5000301;28;20074;-68
2022/06/20 03:47:10;;;;;;;18.13;5.63;;;19.30;99.90;;;;;;5031074;28;20165;-68
2022/06/20 03:50:44;;;;;;;7.57;5.43;;;19.30;99.90;;;;;;5031537;28;20052;-68
2022/06/20 03:54:21;;;;;;;8.90;5.10;;;19.40;99.90;;;;;;5031610;28;20053;-68
2022/06/20 03:58:10;;;;;;;10.27;6.22;;;19.40;99.90;;;;;;5031113;28;20044;-68
2022/06/20 04:01:45;;;;;;;8.75;4.78;;;19.50;99.90;;;;;;5031260;28;20044;-68
2022/06/20 04:05:27;;;;;;;10.25;5.10;;;19.30;99.90;;;;;;5031063;28;20044;-68
2022/06/20 04:13:02;;;;;;;9.25;4.78;;;19.40;99.90;;;;;;5030730;28;20048;-68
2022/06/20 04:16:31;;;;;;;14.07;5.50;;;19.50;99.90;;;;;;5030413;28;20048;-68
2022/06/20 04:19:56;;;;;;;7.40;5.20;;;19.50;99.90;;;;;;5030958;28;20040;-68
2022/06/20 04:23:27;;;;;;;10.85;5.68;;;19.40;99.90;;;;;;5030717;28;20036;-68
2022/06/20 04:27:01;;;;;;;10.18;5.10;;;19.40;99.90;;;;;;5030262;28;20052;-69
2022/06/20 04:30:42;;;;;;;10.68;4.82;;;19.70;99.90;;;;;;5030831;28;20512;-68
2022/06/20 04:34:14;;;;;;;9.70;4.63;;;21.10;99.90;;;;;;5030707;28;20117;-68
2022/06/20 04:37:49;;;;;;;9.77;4.70;;;22.50;99.90;;;;;;5029564;28;20510;-69
2022/06/20 04:41:39;;;;;;;5.85;4.00;;;24.00;99.90;;;;;;5030317;28;20036;-68
2022/06/20 04:45:25;;;;;;;11.80;4.20;;;25.90;99.90;;;;;;5028166;28;20040;-69
2022/06/20 04:48:49;;;;;;;6.82;3.70;;;27.70;99.90;;;;;;5030435;28;20490;-69
2022/06/20 04:52:17;;;;;;;10.95;4.05;;;28.30;98.90;;;;;;5030558;28;20044;-69
2022/06/20 04:55:48;;;;;;;5.10;3.83;;;28.80;97.10;;;;;;5030482;28;20604;-68
2022/06/20 04:59:16;;;;;;;8.57;4.10;;;28.90;96.20;;;;;;5030251;28;20044;-68
2022/06/20 05:02:41;;;;;;;5.18;3.63;;;29.00;95.90;;;;;;5029997;28;20048;-69
2022/06/20 05:06:09;;;;;;;7.45;3.38;;;29.30;95.50;;;;;;5030020;28;20036;-68
2022/06/20 05:09:33;;;;;;;5.55;3.17;;;30.10;94.40;;;;;;5030304;28;20044;-68
2022/06/20 05:13:01;;;;;;;5.85;3.58;;;30.20;93.80;;;;;;5030132;28;20044;-68
2022/06/20 05:16:29;;;;;;;4.78;3.20;;;30.20;93.50;;;;;;5029728;28;20048;-69
2022/06/20 05:20:02;;;;;;;8.48;4.00;;;30.60;92.90;;;;;;5029810;28;20064;-68
2022/06/20 05:23:39;;;;;;;8.15;3.63;;;31.10;92.20;;;;;;5030739;28;20056;-68
2022/06/20 05:27:29;;;;;;;7.00;3.47;;;31.20;92.20;;;;;;5029885;28;20492;-68
2022/06/20 05:30:52;;;;;;;4.65;3.15;;;31.30;91.30;;;;;;5030214;28;20048;-68
2022/06/20 05:34:36;;;;;;;5.57;2.75;;;30.50;91.40;;;;;;5030038;28;20044;-68
2022/06/20 05:37:59;;;;;;;5.35;3.05;;;30.50;91.60;;;;;;5029423;28;20068;-69
2022/06/20 05:41:04;;;;;;;6.43;2.80;;;30.80;91.30;;;;;;5030234;28;20037;-68
2022/06/20 05:44:12;;;;;;;5.43;3.00;;;31.30;91.00;;;;;;5030025;28;20045;-68
2022/06/20 05:47:35;;;;;;;4.72;2.90;;;31.30;90.60;;;;;;5039276;28;20475;-69
2022/06/20 05:50:55;;;;;;;4.63;2.72;;;31.60;90.70;;;;;;5040477;28;20044;-68
2022/06/20 05:54:05;;;;;;;10.80;3.38;;;32.30;90.00;;;;;;5038505;28;20044;-68
2022/06/20 05:57:16;;;;;;;4.05;2.88;;;31.90;90.00;;;;;;5054194;28;20040;-69
2022/06/20 06:00:25;;;;;;;12.20;3.53;;;31.10;90.20;;;;;;5030359;28;20511;-68
2022/06/20 06:03:48;;;;;;;5.60;3.10;;;31.20;90.30;;;;;;5030589;28;20291;-69
2022/06/20 06:07:01;;;;;;;8.82;2.78;;;31.50;90.00;;;;;;5029915;28;20037;-69
2022/06/20 06:10:40;;;;;;;16.02;3.50;;;31.90;89.30;;;;;;5030111;28;20048;-69
2022/06/20 06:13:50;;;;;;;6.57;2.88;;;31.10;88.70;;;;;;5049121;28;20048;-69
2022/06/20 06:17:18;;;;;;;5.93;3.15;;;31.50;88.70;;;;;;5047385;28;20405;-69
2022/06/20 06:20:25;;;;;;;7.53;3.17;;;30.40;88.30;;;;;;5037999;28;20036;-68
2022/06/20 06:23:30;;;;;;;5.70;3.35;;;30.30;89.70;;;;;;5048510;28;20035;-69
2022/06/20 06:26:36;;;;;;;3.70;2.80;;;31.30;88.50;;;;;;5047997;28;20048;-69
2022/06/20 06:30:03;;;;;;;5.82;3.00;;;31.00;88.70;;;;;;5049540;28;20040;-69
2022/06/20 06:33:29;;;;;;;5.85;2.90;;;31.30;88.20;;;;;;5031514;28;20052;-69
2022/06/20 06:36:43;;;;;;;4.22;2.70;;;31.50;87.90;;;;;;5048629;28;20036;-69
2022/06/20 06:40:11;;;;;;;7.95;3.05;;;32.20;87.40;;;;;;5053217;28;20047;-69
2022/06/20 06:43:30;;;;;;;5.68;2.60;;;32.50;86.40;;;;;;5053372;28;20052;-69
2022/06/20 06:46:39;;;;;;;4.28;2.95;;;33.20;85.80;;;;;;5052144;28;20035;-70
2022/06/20 06:49:46;;;;;;;5.38;2.80;;;33.70;84.90;;;;;;5051526;28;20044;-69
2022/06/20 06:52:58;;;;;;;10.80;2.58;;;34.30;83.90;;;;;;5034098;28;20048;-69
2022/06/20 06:56:12;;;;;;;7.18;2.95;;;34.30;82.80;;;;;;5039960;28;20048;-69
2022/06/20 06:59:21;;;;;;;7.40;2.90;;;34.00;83.10;;;;;;5042842;28;20041;-69
2022/06/20 07:02:29;;;;;;;6.45;2.42;;;33.40;83.60;;;;;;5046465;28;20047;-69
2022/06/20 07:05:49;;;;;;;8.23;2.70;;;34.00;83.20;;;;;;5050907;28;20048;-69
2022/06/20 07:09:29;;;;;;;4.60;2.58;;;33.20;82.70;;;;;;5050412;28;20053;-68
2022/06/20 07:12:44;;;;;;;9.63;3.10;;;33.80;82.90;;;;;;5048805;28;20174;-69
2022/06/20 07:15:52;;;;;;;5.38;2.47;;;34.40;81.80;;;;;;5040688;28;20502;-68
2022/06/20 07:18:58;;;;;;;5.70;2.35;;;35.10;81.50;;;;;;5052124;28;20044;-69
2022/06/20 07:22:03;;;;;;;6.97;2.63;;;33.60;82.10;;;;;;5050789;28;20533;-69
2022/06/20 07:25:23;;;;;;;11.30;2.53;;;32.40;82.80;;;;;;5051388;28;20387;-69
2022/06/20 07:28:27;;;;;;;;;;;33.80;81.80;;;;;;5050482;28;20055;-69
2022/06/20 07:31:39;;;;;;;8.20;2.65;;;32.50;83.00;;;;;;5048843;28;20355;-70
2022/06/20 07:34:58;;;;;;;6.13;2.47;;;32.50;82.70;;;;;;5048235;28;20491;-70
2022/06/20 07:38:21;;;;;;;3.95;2.40;;;33.50;82.00;;;;;;5050369;28;20040;-71
2022/06/20 07:41:33;;;;;;;6.25;2.70;;;32.40;82.90;;;;;;5051274;28;20036;-71
2022/06/20 07:44:42;;;;;;;6.47;2.17;;;32.20;83.60;;;;;;5052205;28;20043;-70
2022/06/20 07:47:50;;;;;;;7.93;2.75;;;33.80;80.80;;;;;;5051741;28;20376;-70
2022/06/20 07:51:09;;;;;;;8.48;2.30;;;33.50;81.00;;;;;;5051475;28;20036;-71
2022/06/20 07:54:27;;;;;;;4.43;2.30;;;34.80;79.50;;;;;;5045028;28;20052;-70
2022/06/20 07:57:40;;;;;;;10.27;2.42;;;35.20;77.80;;;;;;5045349;28;20055;-71
2022/06/20 08:00:48;;;;;;;5.18;2.25;;;35.80;76.60;;;;;;5050591;28;20048;-69
2022/06/20 08:04:05;;;;;;;5.70;1.80;;;35.20;78.10;;;;;;5048341;28;20048;-71
2022/06/20 08:07:28;;;;;;;7.20;2.17;;;36.10;76.80;;;;;;5045740;28;20044;-72
2022/06/20 08:10:42;;;;;;;4.20;2.10;;;35.20;78.10;;;;;;5046477;28;20035;-71
2022/06/20 08:13:53;;;;;;;6.13;1.92;;;36.60;76.50;;;;;;5048636;28;20510;-71
2022/06/20 08:17:01;;;;;;;7.20;1.88;;;38.30;74.10;;;;;;5049387;28;20028;-70
2022/06/20 08:20:06;;;;;;;10.45;1.83;;;38.80;73.00;;;;;;5042834;28;20052;-71
2022/06/20 08:23:20;;;;;;;16.52;2.30;;;38.80;72.00;;;;;;5047011;28;20071;-72
2022/06/20 08:26:33;;;;;;;7.20;1.90;;;37.30;69.20;;;;;;5049534;28;20059;-72
2022/06/20 08:29:43;;;;;;;4.75;1.67;;;35.30;73.00;;;;;;5051136;28;20375;-71
2022/06/20 08:32:56;;;;;;;6.75;2.00;;;37.20;70.80;;;;;;5047735;28;20047;-71
2022/06/20 08:36:38;;;;;;;5.22;1.77;;;37.50;69.60;;;;;;5049167;28;20048;-71
2022/06/20 08:39:59;;;;;;;2.75;1.50;;;39.40;68.90;;;;;;4995401;28;20165;-71
2022/06/20 08:43:25;;;;;;;4.50;1.40;;;40.40;64.60;;;;;;5047885;28;20052;-71
2022/06/20 08:46:58;;;;;;;4.32;1.55;;;41.40;64.80;;;;;;5049381;28;20055;-71
2022/06/20 08:50:51;;;;;;;4.60;1.60;;;41.50;60.70;;;;;;5049178;28;20040;-72
2022/06/20 08:54:38;;;;;;;7.47;1.70;;;41.30;60.70;;;;;;5048812;28;20048;-69
2022/06/20 08:57:54;;;;;;;6.65;1.40;;;42.40;59.50;;;;;;5044800;28;20360;-71
2022/06/20 09:01:22;;;;;;;3.28;1.52;;;43.60;58.70;;;;;;5050914;28;20505;-70
2022/06/20 09:04:38;;;;;;;5.75;1.70;;;44.60;58.30;;;;;;5037536;28;20047;-70
2022/06/20 09:07:49;;;;;;;4.85;1.50;;;43.50;58.90;;;;;;5049209;28;20060;-71
2022/06/20 09:11:18;;;;;;;8.93;1.73;;;42.90;58.20;;;;;;5044322;28;20052;-72
2022/06/20 09:14:42;;;;;;;4.95;1.50;;;43.90;57.00;;;;;;5043710;28;20052;-71
2022/06/20 09:18:13;;;;;;;7.13;1.98;;;41.70;57.30;;;;;;5048121;28;20064;-71
2022/06/20 09:21:35;;;;;;;5.07;1.98;;;43.00;58.10;;;;;;5042309;28;20510;-71
2022/06/20 09:24:56;;;;;;;5.00;1.80;;;44.30;57.10;;;;;;5046787;28;20036;-70
2022/06/20 09:28:30;;;;;;;4.97;1.70;;;43.40;55.40;;;;;;5045906;28;20044;-70
2022/06/20 09:31:53;;;;;;;7.72;1.90;;;40.60;58.40;;;;;;5042996;28;20044;-71
2022/06/20 09:35:22;;;;;;;5.95;1.92;;;42.40;58.10;;;;;;5044436;28;20067;-70
2022/06/20 09:38:40;;;;;;;2.85;1.35;;;43.60;57.50;;;;;;5044079;28;20588;-71
2022/06/20 09:42:02;;;;;;;3.10;1.20;;;46.10;56.60;;;;;;5045956;28;20494;-71
2022/06/20 09:45:19;;;;;;;6.60;1.75;;;48.30;55.10;;;;;;5048893;28;20048;-71
2022/06/20 09:49:08;;;;;;;4.13;1.40;;;46.50;55.60;;;;;;5046476;28;20055;-71
2022/06/20 09:52:39;;;;;;;5.40;1.90;;;45.30;55.80;;;;;;5046382;28;20052;-72
2022/06/20 09:56:01;;;;;;;2.65;1.70;;;41.90;56.30;;;;;;5049016;28;20478;-72
2022/06/20 09:59:14;;;;;;;3.92;1.70;;;41.70;56.80;;;;;;5046938;28;20551;-70
2022/06/20 10:02:24;;;;;;;3.10;1.30;;;44.20;56.10;;;;;;5046533;28;20845;-69
2022/06/20 10:05:42;;;;;;;2.08;1.23;;;45.50;55.40;;;;;;5047989;28;20056;-68
2022/06/20 10:08:56;;;;;;;2.85;1.88;;;45.40;54.80;;;;;;5050063;28;20048;-71
2022/06/20 10:12:15;;;;;;;8.07;2.30;;;45.30;54.20;;;;;;5052250;28;20048;-71
2022/06/20 10:15:35;;;;;;;5.05;1.75;;;40.80;56.20;;;;;;5052637;28;20040;-69
2022/06/20 10:18:55;;;;;;;4.78;1.92;;;38.60;58.30;;;;;;5043422;28;20060;-72
2022/06/20 10:22:29;;;;;;;7.10;1.83;;;41.20;58.70;;;;;;5051414;28;20040;-70
2022/06/20 10:25:58;;;;;;;6.18;1.42;;;43.90;56.20;;;;;;5052798;28;20044;-71
2022/06/20 10:29:18;;;;;;;5.30;1.90;;;44.30;55.80;;;;;;5046765;28;20511;-68
2022/06/20 10:32:31;;;;;;;;;;;42.00;55.60;;;;;;5049019;28;20040;-70
2022/06/20 10:35:43;;;;;;;4.30;1.52;;;41.10;55.80;;;;;;5052382;28;19923;-70
2022/06/20 10:38:53;;;;;;;6.15;1.60;;;42.20;56.30;;;;;;5046792;28;20052;-70
2022/06/20 10:42:22;;;;;;;2.90;1.50;;;43.70;54.90;;;;;;5050735;28;20046;-70
2022/06/20 10:45:26;;;;;;;3.70;1.65;;;43.10;54.30;;;;;;5050375;28;20056;-71
2022/06/20 10:48:56;;;;;;;5.55;1.88;;;41.00;56.20;;;;;;5049835;28;20044;-72
2022/06/20 10:52:15;;;;;;;5.93;2.60;;;40.70;54.70;;;;;;5050920;28;20040;-70
2022/06/20 10:55:20;;;;;;;;;;;39.70;56.10;;;;;;5040413;28;20490;-71
2022/06/20 10:58:59;;;;;;;3.47;1.60;;;41.80;54.40;;;;;;5043545;28;19916;-70
2022/06/20 11:02:21;;;;;;;2.25;1.50;;;42.30;54.20;;;;;;5047818;28;20048;-68
2022/06/20 11:05:44;;;;;;;5.32;1.70;;;40.00;56.60;;;;;;5043728;28;20043;-69
2022/06/20 11:09:00;;;;;;;4.85;1.60;;;41.60;55.90;;;;;;5047559;28;20041;-69
2022/06/20 11:12:44;;;;;;;3.45;1.83;;;40.00;54.70;;;;;;5050346;28;20036;-68
2022/06/20 11:16:06;;;;;;;2.83;1.52;;;40.50;54.70;;;;;;5047786;28;20044;-68
2022/06/20 11:19:26;;;;;;;7.28;2.45;;;42.20;53.70;;;;;;5041378;28;20048;-69
2022/06/20 11:22:36;;;;;;;2.28;1.60;;;44.00;53.60;;;;;;5048958;28;20051;-69
2022/06/20 11:25:53;;;;;;;7.30;1.60;;;44.10;52.90;;;;;;5044130;28;20044;-69
2022/06/20 11:29:42;;;;;;;6.38;1.52;;;44.10;53.50;;;;;;5048974;28;20036;-71
2022/06/20 11:32:58;;;;;;;3.15;1.52;;;38.80;53.50;;;;;;5051941;28;20048;-69
2022/06/20 11:36:11;;;;;;;6.15;1.80;;;38.20;54.60;;;;;;5045740;28;20044;-68
2022/06/20 11:39:18;;;;;;;4.25;1.85;;;39.90;55.70;;;;;;5041072;28;20060;-69
2022/06/20 11:42:37;;;;;;;4.82;1.70;;;39.90;54.00;;;;;;5049776;28;20044;-70
2022/06/20 11:45:48;;;;;;;;;;;38.20;56.40;;;;;;5051760;28;20036;-69
2022/06/20 11:49:06;;;;;;;4.63;2.03;;;38.60;56.20;;;;;;5050449;28;19967;-68
2022/06/20 11:52:47;;;;;;;2.80;1.75;;;38.30;55.80;;;;;;5050064;28;20040;-69
2022/06/20 11:56:04;;;;;;;6.30;2.05;;;38.60;54.90;;;;;;5045630;28;20045;-70
2022/06/20 11:59:31;;;;;;;5.45;1.75;;;39.60;54.60;;;;;;5048192;28;20067;-70
2022/06/20 12:02:59;;;;;;;38.03;4.53;;;40.10;54.50;;;;;;5041958;28;20040;-68
2022/06/20 12:06:23;;;;;;;7.35;2.10;;;39.30;55.10;;;;;;5033400;28;20044;-70
2022/06/20 12:09:32;;;;;;;6.35;1.80;;;38.80;56.30;;;;;;5040995;28;20064;-69
2022/06/20 12:13:06;;;;;;;8.23;2.05;;;39.60;56.00;;;;;;5045438;28;20055;-69
2022/06/20 12:16:29;;;;;;;2.75;2.08;;;39.50;56.30;;;;;;5040676;28;20052;-68
2022/06/20 12:23:20;;;;;;;5.40;2.30;;;37.80;57.90;;;;;;5047127;28;20056;-69
2022/06/20 12:26:29;;;;;;;8.65;2.20;;;37.40;58.20;;;;;;5047538;28;20048;-69
2022/06/20 12:29:36;;;;;;;5.32;2.28;;;35.60;58.10;;;;;;5045364;28;20044;-69
2022/06/20 12:32:44;;;;;;;3.20;2.20;;;35.20;58.10;;;;;;5036002;28;20040;-68
2022/06/20 12:35:58;;;;;;;3.08;2.10;;;34.70;59.10;;;;;;5047718;28;20379;-69
2022/06/20 12:39:25;;;;;;;8.32;2.35;;;35.40;58.60;;;;;;5047929;28;20036;-69
2022/06/20 12:42:52;;;;;;;8.25;2.50;;;35.10;60.00;;;;;;5046282;28;20039;-69
2022/06/20 12:46:15;;;;;;;5.88;2.20;;;36.50;58.50;;;;;;5045236;28;20415;-70
2022/06/20 12:49:27;;;;;;;5.75;2.15;;;36.50;57.50;;;;;;5041669;28;20510;-69
2022/06/20 12:52:36;;;;;;;3.30;2.20;;;35.00;58.90;;;;;;5048693;28;20048;-70
2022/06/20 12:56:05;;;;;;;7.95;2.47;;;34.60;58.30;;;;;;5045995;28;20391;-69
2022/06/20 12:59:30;;;;;;;6.15;2.40;;;34.40;58.50;;;;;;5048086;28;20044;-69
2022/06/20 13:02:59;;;;;;;5.43;2.03;;;35.10;60.60;;;;;;5043262;28;20044;-69
2022/06/20 13:06:14;;;;;;;5.70;2.30;;;34.90;60.10;;;;;;5046708;28;20510;-70
2022/06/20 13:09:34;;;;;;;4.60;2.40;;;34.30;59.90;;;;;;5046953;28;20044;-69
2022/06/20 13:13:25;;;;;;;5.45;2.00;;;34.90;60.60;;;;;;5046239;28;20040;-68
2022/06/20 13:16:55;;;;;;;5.10;2.15;;;35.30;59.70;;;;;;4992113;28;20053;-69
2022/06/20 13:20:13;;;;;;;5.90;2.28;;;35.90;60.10;;;;;;5038245;28;20494;-69
2022/06/20 13:23:28;;;;;;;5.32;2.17;;;34.60;60.40;;;;;;5042537;28;20395;-69
2022/06/20 13:26:53;;;;;;;5.78;1.90;;;34.10;61.20;;;;;;5048914;28;20517;-69
2022/06/20 13:30:21;;;;;;;3.30;2.10;;;33.90;60.90;;;;;;5045608;28;20040;-69
2022/06/20 13:33:28;;;;;;;4.70;2.17;;;33.00;60.90;;;;;;5041834;28;20530;-69
2022/06/20 13:36:58;;;;;;;5.45;2.20;;;33.20;60.50;;;;;;5045517;28;20036;-71
2022/06/20 13:40:41;;;;;;;6.03;2.10;;;33.00;60.60;;;;;;5047431;28;20475;-69
2022/06/20 13:44:10;;;;;;;3.22;1.70;;;33.60;60.00;;;;;;5050148;28;20048;-70
2022/06/20 13:47:32;;;;;;;4.57;1.88;;;34.90;60.50;;;;;;5049668;28;20052;-69
2022/06/20 13:50:51;;;;;;;5.38;2.05;;;35.30;60.20;;;;;;5046030;28;20048;-71
2022/06/20 13:54:12;;;;;;;11.20;2.38;;;35.90;58.60;;;;;;5048369;28;20380;-71
2022/06/20 13:57:23;;;;;;;11.15;2.17;;;36.40;59.60;;;;;;5043399;28;20036;-72
2022/06/20 14:00:34;;;;;;;7.43;2.30;;;35.70;60.00;;;;;;5047787;28;20040;-70
2022/06/20 14:04:00;;;;;;;4.70;1.88;;;34.30;60.90;;;;;;5051667;28;20785;-70
2022/06/20 14:07:05;;;;;;;3.92;1.85;;;34.30;62.30;;;;;;5051551;28;20059;-69
2022/06/20 14:10:24;;;;;;;3.05;2.03;;;33.70;61.00;;;;;;5046758;28;20032;-69
2022/06/20 14:13:47;;;;;;;3.85;1.98;;;33.20;62.40;;;;;;5046773;28;20388;-69
2022/06/20 14:16:56;;;;;;;2.90;1.58;;;33.60;62.90;;;;;;5046860;28;20056;-70
2022/06/20 14:20:24;;;;;;;4.90;1.70;;;34.00;61.10;;;;;;5050409;28;20036;-71
2022/06/20 14:23:28;;;;;;;9.02;2.05;;;34.50;60.30;;;;;;5046207;28;20056;-72
2022/06/20 14:26:37;;;;;;;5.53;1.83;;;34.80;59.90;;;;;;5046134;28;20036;-70
2022/06/20 14:29:47;;;;;;;6.40;1.80;;;35.00;59.50;;;;;;5050790;28;20040;-69
2022/06/20 14:33:04;;;;;;;4.55;1.60;;;34.70;60.50;;;;;;5046992;28;20049;-69
2022/06/20 14:36:25;;;;;;;6.07;1.90;;;33.70;58.80;;;;;;5048572;28;20396;-69
2022/06/20 14:39:41;;;;;;;2.15;1.60;;;33.40;61.20;;;;;;5049799;28;20040;-69
2022/06/20 14:43:02;;;;;;;3.88;1.70;;;34.00;61.40;;;;;;5048883;28;20052;-70
2022/06/20 14:46:08;;;;;;;7.53;1.70;;;34.20;59.90;;;;;;5050633;28;20040;-70
2022/06/20 14:49:16;;;;;;;2.78;1.77;;;33.40;60.60;;;;;;5043464;28;20487;-68
2022/06/20 14:52:42;;;;;;;3.65;1.83;;;33.50;59.60;;;;;;5042533;28;20040;-68
2022/06/20 14:55:54;;;;;;;8.02;1.77;;;33.10;59.80;;;;;;5047784;28;20048;-71
2022/06/20 14:59:27;;;;;;;8.32;2.13;;;33.60;59.80;;;;;;5051633;28;20498;-71
2022/06/20 15:02:52;;;;;;;12.27;2.28;;;32.80;59.00;;;;;;4999404;28;20048;-71
2022/06/20 15:06:16;;;;;;;8.43;2.25;;;32.50;59.40;;;;;;5049806;28;20494;-70
2022/06/20 15:09:33;;;;;;;4.22;2.47;;;32.90;60.00;;;;;;5044568;28;20044;-69
2022/06/20 15:12:44;;;;;;;7.90;2.05;;;32.90;61.20;;;;;;5049604;28;20032;-69
2022/06/20 15:15:50;;;;;;;7.73;2.40;;;33.40;60.80;;;;;;5049915;28;20072;-68
2022/06/20 15:19:10;;;;;;;6.55;1.90;;;33.70;60.00;;;;;;5051701;28;20056;-69
2022/06/20 15:22:27;;;;;;;5.82;2.10;;;33.80;59.60;;;;;;5039356;28;20040;-70
2022/06/20 15:25:41;;;;;;;4.57;2.13;;;33.80;59.70;;;;;;5047717;28;20494;-70
2022/06/20 15:29:06;;;;;;;4.10;1.95;;;33.80;60.50;;;;;;5045739;28;20063;-69
2022/06/20 15:32:43;;;;;;;6.53;1.95;;;34.00;62.00;;;;;;5052394;28;20051;-69
2022/06/20 15:35:52;;;;;;;6.32;2.30;;;34.00;62.30;;;;;;5048753;28;20048;-70
2022/06/20 15:39:17;;;;;;;5.60;2.78;;;33.80;63.20;;;;;;5051045;28;20036;-69
2022/06/20 15:42:28;;;;;;;5.05;2.28;;;33.60;64.70;;;;;;5046957;28;20040;-69
2022/06/20 15:45:40;;;;;;;6.85;2.22;;;33.30;64.20;;;;;;5034626;28;20040;-70
2022/06/20 15:49:19;;;;;;;8.63;1.88;;;33.30;65.60;;;;;;5050379;28;20491;-68
2022/06/20 15:52:29;;;;;;;6.28;2.33;;;33.30;65.40;;;;;;5050921;28;20052;-69
2022/06/20 15:55:50;;;;;;;8.48;2.58;;;33.40;66.00;;;;;;5050173;28;20052;-69
2022/06/20 15:59:24;;;;;;;5.00;2.10;;;33.40;66.10;;;;;;5040191;28;20040;-69
2022/06/20 16:02:40;;;;;;;3.47;2.08;;;33.40;65.60;;;;;;5051939;28;20048;-69
2022/06/20 16:05:47;;;;;;;7.45;2.08;;;33.40;65.40;;;;;;5051314;28;20040;-69
2022/06/20 16:09:05;;;;;;;12.13;2.30;;;33.30;66.10;;;;;;5047065;28;20053;-70
2022/06/20 16:12:16;;;;;;;5.82;2.08;;;33.20;66.00;;;;;;5050459;28;20048;-69
2022/06/20 16:15:27;;;;;;;6.15;2.30;;;33.20;65.70;;;;;;5051050;28;20056;-70
2022/06/20 16:18:44;;;;;;;3.75;2.13;;;33.00;65.70;;;;;;5049617;28;20039;-68
2022/06/20 16:21:55;;;;;;;11.00;2.30;;;32.60;65.60;;;;;;5050771;28;20040;-69
2022/06/20 16:25:05;;;;;;;5.60;2.65;;;32.60;65.50;;;;;;5051520;28;20060;-69
2022/06/20 16:28:26;;;;;;;7.88;2.42;;;32.50;66.30;;;;;;5049670;28;20063;-70
2022/06/20 16:31:34;;;;;;;8.18;2.28;;;32.20;65.80;;;;;;5051742;28;20048;-69
2022/06/20 16:34:57;;;;;;;20.15;2.90;;;32.20;65.70;;;;;;5030644;28;20499;-69
2022/06/20 16:38:06;;;;;;;4.07;2.13;;;32.00;66.40;;;;;;5040159;28;20036;-70
2022/06/20 16:41:21;;;;;;;6.47;2.45;;;32.20;66.20;;;;;;5050450;28;20052;-70
2022/06/20 16:44:37;;;;;;;5.38;2.25;;;32.00;66.80;;;;;;5050349;28;20039;-69
2022/06/20 16:48:06;;;;;;;6.35;2.38;;;32.00;66.60;;;;;;5038117;28;20044;-69
2022/06/20 16:51:22;;;;;;;8.45;2.88;;;31.90;66.70;;;;;;5051403;28;20056;-70
2022/06/20 16:54:39;;;;;;;4.97;2.20;;;31.90;67.20;;;;;;5049968;28;20048;-69
2022/06/20 16:57:49;;;;;;;7.53;2.33;;;31.90;67.10;;;;;;5050497;28;20055;-71
2022/06/20 17:01:14;;;;;;;2.97;1.98;;;31.70;66.40;;;;;;5049957;28;20076;-69
2022/06/20 17:04:39;;;;;;;6.40;2.88;;;31.60;67.20;;;;;;5050494;28;20044;-70
2022/06/20 17:07:58;;;;;;;3.83;2.10;;;31.50;66.80;;;;;;5049750;28;20052;-69
2022/06/20 17:11:09;;;;;;;4.15;2.72;;;31.40;67.20;;;;;;5050959;28;20059;-70
2022/06/20 17:14:43;;;;;;;7.07;2.67;;;31.00;67.70;;;;;;5050554;28;20047;-69
2022/06/20 17:17:56;;;;;;;7.50;2.50;;;30.80;68.10;;;;;;5050151;28;20679;-69
2022/06/20 17:21:22;;;;;;;6.93;2.95;;;30.90;68.90;;;;;;5050891;28;20624;-70
2022/06/20 17:24:44;;;;;;;8.13;3.03;;;30.80;68.60;;;;;;5050711;28;20056;-69
2022/06/20 17:27:57;;;;;;;4.43;2.65;;;30.80;69.00;;;;;;5049465;28;20055;-69
2022/06/20 17:31:22;;;;;;;8.32;3.08;;;30.70;68.60;;;;;;5050600;28;20048;-68
2022/06/20 17:34:37;;;;;;;7.03;2.60;;;30.70;69.70;;;;;;5049394;28;20434;-69
2022/06/20 17:38:08;;;;;;;7.35;2.50;;;30.50;69.40;;;;;;5049507;28;20043;-68